createdAt,value
2022-09-10T00:25:45.670Z,92.15
2022-09-10T00:55:45.669Z,92.35
2022-09-10T01:25:45.685Z,91.97
2022-09-10T01:55:45.687Z,92.35
2022-09-10T02:25:45.691Z,92.63
2022-09-10T02:55:45.704Z,92.19
2022-09-10T03:25:49.167Z,92.39
2022-09-10T03:55:45.694Z,92.55
2022-09-10T04:25:45.703Z,92.33
2022-09-10T04:55:45.691Z,92.48
2022-09-10T05:25:45.700Z,92.61
2022-09-10T05:55:45.712Z,92.37
2022-09-10T06:25:45.709Z,93.12
2022-09-10T06:55:45.722Z,93.03
2022-09-10T07:25:45.729Z,93.11
2022-09-10T07:55:45.716Z,92.8
2022-09-10T08:25:45.722Z,92.62
2022-09-10T08:55:48.801Z,92.7
2022-09-10T09:25:45.737Z,93.52
2022-09-10T09:55:45.725Z,91.89
2022-09-10T10:25:45.746Z,91.89
2022-09-10T10:55:45.762Z,93.83
2022-09-10T11:25:45.761Z,95.3
2022-09-10T11:55:45.766Z,94.51
2022-09-10T12:25:45.755Z,93.69
2022-09-10T12:55:45.766Z,90.53
2022-09-10T13:25:45.772Z,91.81
2022-09-10T13:55:45.771Z,94.97
2022-09-10T14:25:45.764Z,90.33
2022-09-10T14:55:45.779Z,88.28
2022-09-10T15:25:45.783Z,86.78
2022-09-10T15:55:45.807Z,89.96
2022-09-10T16:25:45.810Z,90.37
2022-09-10T16:55:45.827Z,91.12
2022-09-10T17:25:45.822Z,89.04
2022-09-10T17:55:45.816Z,89.36
2022-09-10T18:25:49.827Z,89.33
2022-09-10T19:25:52.813Z,90.2
2022-09-10T19:55:52.727Z,90.34
2022-09-10T20:25:52.728Z,91.81
2022-09-10T20:55:52.720Z,93.74
2022-09-10T21:25:52.736Z,94.78
2022-09-10T21:55:52.728Z,95.41
2022-09-10T22:25:52.725Z,95.89
2022-09-10T22:55:52.729Z,96.36
2022-09-10T23:25:52.741Z,96.89
2022-09-10T23:55:52.761Z,96.98
